Return to UIUC Weather Page  
Time Weather Temp Dew Pt Relative Humidity Winds Speed Gust Visibility Pressure Heat Index Wind Chill
Today
6:53AM Cloudy 34 32 92% NW 14 mph 7 mi 1017.9 mb 30.04 in 24
6:53AM Cloudy 34 32 92% NW 14 mph 7 mi 1017.9 mb 30.04 in 24
5:53AM Cloudy 36 34 92% NW 19 mph 4 mi 1017.0 mb 30.02 in 25
4:53AM Cloudy 36 36 100% W 19 mph 6 mi 1015.6 mb 29.99 in 25
4:18AM Cloudy 37 36 96% NW 17 mph 27 mph 6 mi 1014.9 mb 29.97 in 27
4:02AM Cloudy 37 37 100% NW 18 mph 26 mph 4 mi 1014.6 mb 29.96 in 27
3:53AM Cloudy 37 37 100% NW 19 mph 28 mph 2.5 mi 1014.3 mb 29.95 in 27
3:53AM Cloudy 37 37 100% NW 19 mph 28 mph 2.5 mi 1014.3 mb 29.95 in 27
Yesterday
Time Weather Temp Dew Pt Relative Humidity Winds Speed Gust Visibility Pressure Heat Index Wind Chill
10:53PM Fog 39 39 100% S 9 mph 1/4 mi 1010.2 mb 29.83 in
10:50PM Fog 39 39 100% S 10 mph 1/4 mi 1010.2 mb 29.83 in 32
10:20PM Cloudy 39 39 100% S 8 mph 1 mi 1010.5 mb 29.84 in
9:53PM Cloudy 41 41 100% S 9 mph 1.75 mi 1010.2 mb 29.83 in
9:53PM Cloudy 41 41 100% S 9 mph 1.75 mi 1010.2 mb 29.83 in
9:26PM Cloudy 39 39 100% S 6 mph 2.5 mi 1010.2 mb 29.83 in
8:53PM Cloudy 39 39 100% SE 3 mph 2.5 mi 1010.5 mb 29.84 in
8:53PM Cloudy 39 39 100% SE 3 mph 2.5 mi 1010.5 mb 29.84 in
8:43PM Light rain 37 37 100% SE 4 mph 2 mi 1010.5 mb 29.84 in
8:16PM Light rain 37 37 100% SE 6 mph 3/4 mi 1010.5 mb 29.84 in 32
7:53PM Light rain 37 37 100% E 4 mph 1 mi 1010.5 mb 29.84 in
7:53PM Light rain 37 37 100% E 4 mph 1 mi 1010.5 mb 29.84 in
6:01PM Light snow 37 37 100% E 5 mph 1.5 mi 1011.2 mb 29.86 in 32
5:53PM Light snow 37 37 100% E 5 mph 2 mi 1011.2 mb 29.86 in 32
5:53PM Light snow 37 37 100% E 5 mph 2 mi 1011.2 mb 29.86 in 32
5:50PM Light rain 37 37 100% E 4 mph 2.5 mi 1011.2 mb 29.86 in
5:30PM Light rain 37 37 100% E 6 mph 4 mi 1010.9 mb 29.85 in 32
4:53PM Rain 37 37 100% E 9 mph 2.5 mi 1010.9 mb 29.85 in 30
4:53PM Rain 37 37 100% E 9 mph 2.5 mi 1010.9 mb 29.85 in 30
4:44PM Light rain 37 37 100% E 9 mph 3 mi 1011.2 mb 29.86 in 30
3:53PM Light rain 37 37 100% SE 12 mph 1.5 mi 1011.2 mb 29.86 in 29
3:53PM Light rain 37 37 100% SE 12 mph 1.5 mi 1011.2 mb 29.86 in 29
2:00PM Light rain 36 36 100% E 12 mph 1.75 mi 1012.6 mb 29.90 in 28
1:53PM Light rain 36 36 100% E 12 mph 3 mi 1013.4 mb 29.91 in 28
1:53PM Light rain 36 36 100% E 12 mph 3 mi 1013.4 mb 29.91 in 28
12:53PM Light rain 36 34 92% E 11 mph 4 mi 1014.3 mb 29.95 in 28
12:16PM Rain 36 34 92% E 10 mph 3 mi 1015.3 mb 29.98 in 29
11:53AM Rain 36 34 92% E 8 mph 4 mi 1016.0 mb 30.00 in 30
11:53AM Rain 36 34 92% E 8 mph 4 mi 1016.0 mb 30.00 in 30
10:53AM Light rain 36 32 85% E 12 mph 9 mi 1017.1 mb 30.01 in 28
10:53AM Light rain 36 32 85% E 12 mph 9 mi 1017.1 mb 30.01 in 28
7:53AM Cloudy 34 30 85% SE 13 mph 10 mi 1018.1 mb 30.05 in 25
6:53AM Cloudy 34 30 85% E 11 mph 10 mi 1017.3 mb 30.04 in 26
Observations made at University of Illinois Willard Airport